Летняя Золотица

Карта отелей и гостиниц, располагающихся рядом с аэропортом Летняя Золотица :

Летняя Золотица Архангельская область 64° 57' 39.6" N, 36° 49' 50.16" E
Код аэродрома ИКАО
ULBZ
Код аэродрома RU
УЛБЗ
Координаты
N64.96100° E036.83060°
Превышение над уровнем моря
13
Основная полоса
36/18
Курс магнитный
004/184
Длина основной ВПП
740
Ширина основной ВПП
50
Покрытие основной ВПП
Нетвёрдое (грунт)
Освещение ВПП
Нет
Тип: 
Аэродром
Класс аэродрома: 
Принадлежность: 
ГА
Статус: 
Действующий
Сайт: 
E-mail аэродрома: 
vaskovo@2aoao.ru
Страна: 
Россия
Регион: 
Архангельская область
Город: 
Дополнительная информация: 
Оператор: 2-й Архангельский ОАО.

Найти трансфер

С помощью этой формы Вы можете найти трансфер из аэропорта Летняя Золотица в город, аэропорт или вокзал:

Карта места

Javascript is required to view this map.

Погода в аэропортах:

Авиационная погода в Емельяново

Регион: 
Погода METAR: 
UNKL 171830Z 10002MPS 0150 0100S R29/0550U FG SCT001 08/08 Q1005 R29/CLRD65 NOSIG RMK QBB050 QFE729
Время наблюдения
2021-09-17T18:30:00Z
Температура C
8.0
Точка росы
8.0
Направление ветра
100
Скорость ветра (узлы)
4
Метео видимость
0.09
Явления погоды
FG
Условия полета
LIFR
Аэропорт подробнее: 

Авиационная погода в Толмачево

Регион: 
Погода METAR: 
UNNT 171830Z 31005MPS 9999 -SHRA SCT010 BKN051CB 10/10 Q0997 R25/290155 R34/////// NOSIG RMK QFE738/0984
Время наблюдения
2021-09-17T18:30:00Z
Температура C
10.0
Точка росы
10.0
Направление ветра
310
Скорость ветра (узлы)
10
Метео видимость
6.21
Явления погоды
-SHRA
Условия полета
VFR
Аэропорт подробнее: 

Авиационная погода в аэропорту Новый

Регион: 
Погода METAR: 
UHHH 171830Z 24004MPS 9999 -SHRA FEW034CB 15/12 Q1009 R23R/190050 TEMPO 3100 -TSRA RMK QFE750/1001
Время наблюдения
2021-09-17T18:30:00Z
Температура C
15.0
Точка росы
12.0
Направление ветра
240
Скорость ветра (узлы)
8
Метео видимость
6.21
Явления погоды
-SHRA
Условия полета
VFR
Аэропорт подробнее: 

Авиационная погода в Якутске

Регион: 
Погода METAR: 
UEEE 171830Z 30004MPS 9999 -SHRA SCT009 BKN018CB 07/07 Q0997 R23L/290155 NOSIG RMK QFE739
Время наблюдения
2021-09-17T18:30:00Z
Температура C
7.0
Точка росы
7.0
Направление ветра
300
Скорость ветра (узлы)
8
Метео видимость
6.21
Явления погоды
-SHRA
Условия полета
MVFR
Аэропорт подробнее: